Terminal Aerodrome Forecast
Issued by NWS Austin/San Antonio, TX

Current Version | Previous Version | Text Only | Print | Product List | Glossary Off
Versions: 1 2 3 4 5 6 7 8 9 10 11 12 13 14 15 16 17 18 19

000
FTUS44 KEWX 080530
TAFDRT
TAF
KDRT 080530Z 0806/0906 12011KT P6SM BKN250
     FM081200 12011KT P6SM BKN020 BKN250
     FM081800 14014G24KT P6SM SCT050 BKN250=

USA.gov is the U.S. government's official web portal to all federal, state and local government web resources and services.